sensor_id;sensor_type;location;lat;lon;timestamp;temperature;humidity
21580;DHT22;10951;59.656;9.666;2023-03-01T00:01:15;-1.70;94.00
21580;DHT22;10951;59.656;9.666;2023-03-01T00:03:43;-1.70;94.00
21580;DHT22;10951;59.656;9.666;2023-03-01T00:06:10;-1.70;94.00
21580;DHT22;10951;59.656;9.666;2023-03-01T00:08:37;-1.70;94.00
21580;DHT22;10951;59.656;9.666;2023-03-01T00:11:07;-1.70;94.00
21580;DHT22;10951;59.656;9.666;2023-03-01T00:13:35;-1.70;94.10
21580;DHT22;10951;59.656;9.666;2023-03-01T00:16:27;-1.80;94.00
21580;DHT22;10951;59.656;9.666;2023-03-01T00:18:56;-1.80;93.90
21580;DHT22;10951;59.656;9.666;2023-03-01T00:21:23;-1.80;93.80
21580;DHT22;10951;59.656;9.666;2023-03-01T00:23:51;-1.80;93.80
21580;DHT22;10951;59.656;9.666;2023-03-01T00:26:20;-1.90;93.80
21580;DHT22;10951;59.656;9.666;2023-03-01T00:28:48;-1.90;94.00
21580;DHT22;10951;59.656;9.666;2023-03-01T00:31:21;-2.00;94.00
21580;DHT22;10951;59.656;9.666;2023-03-01T00:33:51;-2.00;93.80
21580;DHT22;10951;59.656;9.666;2023-03-01T00:36:19;-1.90;93.70
21580;DHT22;10951;59.656;9.666;2023-03-01T00:38:46;-1.90;93.40
21580;DHT22;10951;59.656;9.666;2023-03-01T00:41:16;-1.80;93.20
21580;DHT22;10951;59.656;9.666;2023-03-01T00:43:43;-1.80;93.00
21580;DHT22;10951;59.656;9.666;2023-03-01T00:46:13;-1.70;92.90
21580;DHT22;10951;59.656;9.666;2023-03-01T00:48:41;-1.70;92.60
21580;DHT22;10951;59.656;9.666;2023-03-01T00:51:16;-1.60;92.50
21580;DHT22;10951;59.656;9.666;2023-03-01T00:53:44;-1.60;92.40
21580;DHT22;10951;59.656;9.666;2023-03-01T00:56:13;-1.60;92.40
21580;DHT22;10951;59.656;9.666;2023-03-01T00:58:41;-1.70;92.40
21580;DHT22;10951;59.656;9.666;2023-03-01T01:01:14;-1.70;92.60
21580;DHT22;10951;59.656;9.666;2023-03-01T01:03:49;-1.70;92.70
21580;DHT22;10951;59.656;9.666;2023-03-01T01:06:18;-1.70;92.70
21580;DHT22;10951;59.656;9.666;2023-03-01T01:08:46;-1.80;92.60
21580;DHT22;10951;59.656;9.666;2023-03-01T01:11:14;-1.80;92.60
21580;DHT22;10951;59.656;9.666;2023-03-01T01:13:41;-1.80;92.60
21580;DHT22;10951;59.656;9.666;2023-03-01T01:16:08;-1.80;92.60
21580;DHT22;10951;59.656;9.666;2023-03-01T01:18:35;-1.90;92.50
21580;DHT22;10951;59.656;9.666;2023-03-01T01:21:07;-1.80;92.40
21580;DHT22;10951;59.656;9.666;2023-03-01T01:23:34;-1.80;92.50
21580;DHT22;10951;59.656;9.666;2023-03-01T01:26:12;-1.80;92.50
21580;DHT22;10951;59.656;9.666;2023-03-01T01:28:40;-1.80;92.40
21580;DHT22;10951;59.656;9.666;2023-03-01T01:31:07;-1.80;92.40
21580;DHT22;10951;59.656;9.666;2023-03-01T01:33:34;-1.80;92.50
21580;DHT22;10951;59.656;9.666;2023-03-01T01:36:01;-1.70;92.20
21580;DHT22;10951;59.656;9.666;2023-03-01T01:38:28;-1.60;92.10
21580;DHT22;10951;59.656;9.666;2023-03-01T01:40:55;-1.60;91.80
21580;DHT22;10951;59.656;9.666;2023-03-01T01:43:28;-1.60;91.70
21580;DHT22;10951;59.656;9.666;2023-03-01T01:51:47;-1.60;91.60
21580;DHT22;10951;59.656;9.666;2023-03-01T01:54:25;-1.60;91.70
21580;DHT22;10951;59.656;9.666;2023-03-01T01:57:02;-1.70;91.70
21580;DHT22;10951;59.656;9.666;2023-03-01T01:59:31;-1.70;91.60
21580;DHT22;10951;59.656;9.666;2023-03-01T02:02:02;-1.70;91.60
21580;DHT22;10951;59.656;9.666;2023-03-01T02:04:31;-1.70;91.60
21580;DHT22;10951;59.656;9.666;2023-03-01T02:07:02;-1.80;91.70
21580;DHT22;10951;59.656;9.666;2023-03-01T02:09:31;-1.80;91.70
21580;DHT22;10951;59.656;9.666;2023-03-01T02:11:59;-1.90;91.80
21580;DHT22;10951;59.656;9.666;2023-03-01T02:14:26;-1.90;91.90
21580;DHT22;10951;59.656;9.666;2023-03-01T02:16:53;-2.00;92.10
21580;DHT22;10951;59.656;9.666;2023-03-01T02:22:24;-2.10;92.50
21580;DHT22;10951;59.656;9.666;2023-03-01T02:27:56;-2.30;92.90
21580;DHT22;10951;59.656;9.666;2023-03-01T02:30:25;-2.30;93.10
21580;DHT22;10951;59.656;9.666;2023-03-01T02:32:56;-2.30;93.20
21580;DHT22;10951;59.656;9.666;2023-03-01T02:35:32;-2.20;92.80
21580;DHT22;10951;59.656;9.666;2023-03-01T02:38:01;-2.10;92.40
21580;DHT22;10951;59.656;9.666;2023-03-01T02:40:29;-2.10;92.10
21580;DHT22;10951;59.656;9.666;2023-03-01T02:42:58;-2.00;91.90
21580;DHT22;10951;59.656;9.666;2023-03-01T02:45:27;-1.90;91.60
21580;DHT22;10951;59.656;9.666;2023-03-01T02:47:54;-1.90;91.50
21580;DHT22;10951;59.656;9.666;2023-03-01T02:53:04;-1.80;91.20
21580;DHT22;10951;59.656;9.666;2023-03-01T02:55:34;-1.80;91.10
21580;DHT22;10951;59.656;9.666;2023-03-01T02:58:03;-1.80;91.10
21580;DHT22;10951;59.656;9.666;2023-03-01T03:00:37;-1.80;91.10
21580;DHT22;10951;59.656;9.666;2023-03-01T03:03:07;-1.80;90.90
21580;DHT22;10951;59.656;9.666;2023-03-01T03:05:34;-1.80;90.80
21580;DHT22;10951;59.656;9.666;2023-03-01T03:08:02;-1.80;90.80
21580;DHT22;10951;59.656;9.666;2023-03-01T03:10:37;-1.90;90.60
21580;DHT22;10951;59.656;9.666;2023-03-01T03:13:07;-1.80;90.50
21580;DHT22;10951;59.656;9.666;2023-03-01T03:15:34;-1.80;90.30
21580;DHT22;10951;59.656;9.666;2023-03-01T03:18:04;-1.80;90.10
21580;DHT22;10951;59.656;9.666;2023-03-01T03:20:32;-1.70;90.00
21580;DHT22;10951;59.656;9.666;2023-03-01T03:23:00;-1.70;89.90
21580;DHT22;10951;59.656;9.666;2023-03-01T03:25:28;-1.70;89.90
21580;DHT22;10951;59.656;9.666;2023-03-01T03:27:59;-1.70;89.60
21580;DHT22;10951;59.656;9.666;2023-03-01T03:30:29;-1.70;89.60
21580;DHT22;10951;59.656;9.666;2023-03-01T03:32:57;-1.70;89.80
21580;DHT22;10951;59.656;9.666;2023-03-01T03:35:37;-1.80;90.10
21580;DHT22;10951;59.656;9.666;2023-03-01T03:38:07;-1.80;90.00
21580;DHT22;10951;59.656;9.666;2023-03-01T03:40:44;-1.90;90.40
21580;DHT22;10951;59.656;9.666;2023-03-01T03:43:17;-1.90;90.40
21580;DHT22;10951;59.656;9.666;2023-03-01T03:45:46;-1.90;90.10
21580;DHT22;10951;59.656;9.666;2023-03-01T03:48:13;-2.00;90.20
21580;DHT22;10951;59.656;9.666;2023-03-01T03:50:41;-1.90;90.60
21580;DHT22;10951;59.656;9.666;2023-03-01T03:53:10;-1.90;90.20
21580;DHT22;10951;59.656;9.666;2023-03-01T03:55:38;-1.80;89.90
21580;DHT22;10951;59.656;9.666;2023-03-01T03:58:07;-1.80;89.80
21580;DHT22;10951;59.656;9.666;2023-03-01T04:00:42;-1.90;89.80
21580;DHT22;10951;59.656;9.666;2023-03-01T04:03:12;-1.90;90.10
21580;DHT22;10951;59.656;9.666;2023-03-01T04:05:40;-2.00;90.10
21580;DHT22;10951;59.656;9.666;2023-03-01T04:08:07;-2.00;90.00
21580;DHT22;10951;59.656;9.666;2023-03-01T04:10:40;-2.00;89.90
21580;DHT22;10951;59.656;9.666;2023-03-01T04:13:10;-2.00;89.80
21580;DHT22;10951;59.656;9.666;2023-03-01T04:15:39;-2.10;89.90
21580;DHT22;10951;59.656;9.666;2023-03-01T04:18:06;-2.10;90.00
21580;DHT22;10951;59.656;9.666;2023-03-01T04:20:35;-2.10;89.90
21580;DHT22;10951;59.656;9.666;2023-03-01T04:23:05;-2.20;90.10
21580;DHT22;10951;59.656;9.666;2023-03-01T04:25:49;-2.20;90.40
21580;DHT22;10951;59.656;9.666;2023-03-01T04:28:21;-2.30;90.20
21580;DHT22;10951;59.656;9.666;2023-03-01T04:30:48;-2.30;90.30
21580;DHT22;10951;59.656;9.666;2023-03-01T04:33:15;-2.40;90.50
21580;DHT22;10951;59.656;9.666;2023-03-01T04:35:42;-2.40;90.60
21580;DHT22;10951;59.656;9.666;2023-03-01T04:38:09;-2.40;90.70
21580;DHT22;10951;59.656;9.666;2023-03-01T04:40:36;-2.40;90.60
21580;DHT22;10951;59.656;9.666;2023-03-01T04:43:04;-2.40;90.70
21580;DHT22;10951;59.656;9.666;2023-03-01T04:45:32;-2.50;90.70
21580;DHT22;10951;59.656;9.666;2023-03-01T04:48:01;-2.60;90.80
21580;DHT22;10951;59.656;9.666;2023-03-01T04:50:28;-2.60;90.90
21580;DHT22;10951;59.656;9.666;2023-03-01T04:52:55;-2.70;91.10
21580;DHT22;10951;59.656;9.666;2023-03-01T04:55:27;-2.70;91.10
21580;DHT22;10951;59.656;9.666;2023-03-01T04:57:55;-2.70;91.20
21580;DHT22;10951;59.656;9.666;2023-03-01T05:00:22;-2.80;91.20
21580;DHT22;10951;59.656;9.666;2023-03-01T05:02:59;-2.80;91.20
21580;DHT22;10951;59.656;9.666;2023-03-01T05:05:34;-2.80;91.50
21580;DHT22;10951;59.656;9.666;2023-03-01T05:08:07;-2.80;91.40
21580;DHT22;10951;59.656;9.666;2023-03-01T05:10:35;-2.80;91.30
21580;DHT22;10951;59.656;9.666;2023-03-01T05:13:03;-2.80;91.20
21580;DHT22;10951;59.656;9.666;2023-03-01T05:15:31;-2.90;91.20
21580;DHT22;10951;59.656;9.666;2023-03-01T05:17:59;-2.90;91.20
21580;DHT22;10951;59.656;9.666;2023-03-01T05:20:28;-2.90;91.20
21580;DHT22;10951;59.656;9.666;2023-03-01T05:22:57;-3.00;91.20
21580;DHT22;10951;59.656;9.666;2023-03-01T05:25:26;-3.00;91.30
21580;DHT22;10951;59.656;9.666;2023-03-01T05:27:53;-3.00;91.30
21580;DHT22;10951;59.656;9.666;2023-03-01T05:30:20;-3.00;91.60
21580;DHT22;10951;59.656;9.666;2023-03-01T05:32:50;-3.10;91.40
21580;DHT22;10951;59.656;9.666;2023-03-01T05:35:22;-3.10;91.40
21580;DHT22;10951;59.656;9.666;2023-03-01T05:37:50;-3.10;91.50
21580;DHT22;10951;59.656;9.666;2023-03-01T05:40:23;-3.10;91.50
21580;DHT22;10951;59.656;9.666;2023-03-01T05:42:55;-3.10;91.70
21580;DHT22;10951;59.656;9.666;2023-03-01T05:45:24;-3.10;91.60
21580;DHT22;10951;59.656;9.666;2023-03-01T05:47:52;-3.10;91.70
21580;DHT22;10951;59.656;9.666;2023-03-01T05:50:24;-3.00;91.50
21580;DHT22;10951;59.656;9.666;2023-03-01T05:55:27;-3.10;91.50
21580;DHT22;10951;59.656;9.666;2023-03-01T05:57:55;-3.20;91.60
21580;DHT22;10951;59.656;9.666;2023-03-01T06:00:24;-3.10;91.60
21580;DHT22;10951;59.656;9.666;2023-03-01T06:02:51;-3.10;91.40
21580;DHT22;10951;59.656;9.666;2023-03-01T06:05:20;-3.10;91.40
21580;DHT22;10951;59.656;9.666;2023-03-01T06:07:47;-3.10;91.40
21580;DHT22;10951;59.656;9.666;2023-03-01T06:10:14;-3.10;91.40
21580;DHT22;10951;59.656;9.666;2023-03-01T06:12:42;-3.20;91.40
21580;DHT22;10951;59.656;9.666;2023-03-01T06:15:12;-3.20;91.50
21580;DHT22;10951;59.656;9.666;2023-03-01T06:17:42;-3.20;91.50
21580;DHT22;10951;59.656;9.666;2023-03-01T06:20:20;-3.20;91.50
21580;DHT22;10951;59.656;9.666;2023-03-01T06:22:48;-3.20;91.50
21580;DHT22;10951;59.656;9.666;2023-03-01T06:25:18;-3.10;91.40
21580;DHT22;10951;59.656;9.666;2023-03-01T06:27:46;-3.10;91.30
21580;DHT22;10951;59.656;9.666;2023-03-01T06:30:15;-3.20;91.30
21580;DHT22;10951;59.656;9.666;2023-03-01T06:32:42;-3.20;91.50
21580;DHT22;10951;59.656;9.666;2023-03-01T06:35:10;-3.20;91.60
21580;DHT22;10951;59.656;9.666;2023-03-01T06:37:38;-3.30;91.60
21580;DHT22;10951;59.656;9.666;2023-03-01T06:40:06;-3.30;91.60
21580;DHT22;10951;59.656;9.666;2023-03-01T06:42:40;-3.40;91.70
21580;DHT22;10951;59.656;9.666;2023-03-01T06:45:08;-3.30;91.70
21580;DHT22;10951;59.656;9.666;2023-03-01T06:47:35;-3.40;91.70
21580;DHT22;10951;59.656;9.666;2023-03-01T06:50:02;-3.40;91.80
21580;DHT22;10951;59.656;9.666;2023-03-01T06:52:29;-3.40;91.80
21580;DHT22;10951;59.656;9.666;2023-03-01T06:54:56;-3.40;91.70
21580;DHT22;10951;59.656;9.666;2023-03-01T06:57:23;-3.40;91.70
21580;DHT22;10951;59.656;9.666;2023-03-01T06:59:50;-3.40;91.60
21580;DHT22;10951;59.656;9.666;2023-03-01T07:02:17;-3.30;91.50
21580;DHT22;10951;59.656;9.666;2023-03-01T07:04:44;-3.30;91.40
21580;DHT22;10951;59.656;9.666;2023-03-01T07:07:11;-3.20;91.40
21580;DHT22;10951;59.656;9.666;2023-03-01T07:09:38;-3.10;91.10
21580;DHT22;10951;59.656;9.666;2023-03-01T07:12:05;-3.00;90.80
21580;DHT22;10951;59.656;9.666;2023-03-01T07:14:32;-2.90;90.60
21580;DHT22;10951;59.656;9.666;2023-03-01T07:16:59;-2.80;90.40
21580;DHT22;10951;59.656;9.666;2023-03-01T07:19:26;-2.70;90.20
21580;DHT22;10951;59.656;9.666;2023-03-01T07:21:53;-2.60;90.00
21580;DHT22;10951;59.656;9.666;2023-03-01T07:24:22;-2.60;89.50
21580;DHT22;10951;59.656;9.666;2023-03-01T07:26:50;-2.60;89.30
21580;DHT22;10951;59.656;9.666;2023-03-01T07:29:18;-2.60;89.10
21580;DHT22;10951;59.656;9.666;2023-03-01T07:31:45;-2.70;89.20
21580;DHT22;10951;59.656;9.666;2023-03-01T07:34:15;-2.60;89.20
21580;DHT22;10951;59.656;9.666;2023-03-01T07:36:42;-2.60;89.10
21580;DHT22;10951;59.656;9.666;2023-03-01T07:39:10;-2.60;88.80
21580;DHT22;10951;59.656;9.666;2023-03-01T07:41:37;-2.60;88.50
21580;DHT22;10951;59.656;9.666;2023-03-01T07:44:04;-2.60;88.40
21580;DHT22;10951;59.656;9.666;2023-03-01T07:46:31;-2.60;88.40
21580;DHT22;10951;59.656;9.666;2023-03-01T07:48:59;-2.60;88.30
21580;DHT22;10951;59.656;9.666;2023-03-01T07:51:26;-2.50;88.10
21580;DHT22;10951;59.656;9.666;2023-03-01T07:53:53;-2.50;87.80
21580;DHT22;10951;59.656;9.666;2023-03-01T07:56:20;-2.40;87.70
21580;DHT22;10951;59.656;9.666;2023-03-01T07:58:48;-2.40;87.30
21580;DHT22;10951;59.656;9.666;2023-03-01T08:01:19;-2.30;87.10
21580;DHT22;10951;59.656;9.666;2023-03-01T08:03:47;-2.20;86.80
21580;DHT22;10951;59.656;9.666;2023-03-01T08:06:15;-2.10;86.50
21580;DHT22;10951;59.656;9.666;2023-03-01T08:08:43;-2.00;86.10
21580;DHT22;10951;59.656;9.666;2023-03-01T08:11:12;-2.00;86.30
21580;DHT22;10951;59.656;9.666;2023-03-01T08:13:39;-1.90;85.50
21580;DHT22;10951;59.656;9.666;2023-03-01T08:16:10;-1.90;85.00
21580;DHT22;10951;59.656;9.666;2023-03-01T08:18:38;-1.80;84.60
21580;DHT22;10951;59.656;9.666;2023-03-01T08:21:07;-1.70;84.50
21580;DHT22;10951;59.656;9.666;2023-03-01T08:23:35;-1.60;84.00
21580;DHT22;10951;59.656;9.666;2023-03-01T08:26:10;-1.50;83.70
21580;DHT22;10951;59.656;9.666;2023-03-01T08:28:38;-1.40;83.30
21580;DHT22;10951;59.656;9.666;2023-03-01T08:31:17;-1.30;82.80
21580;DHT22;10951;59.656;9.666;2023-03-01T08:33:46;-1.30;82.10
21580;DHT22;10951;59.656;9.666;2023-03-01T08:36:18;-1.30;81.80
21580;DHT22;10951;59.656;9.666;2023-03-01T08:38:46;-1.30;82.00
21580;DHT22;10951;59.656;9.666;2023-03-01T08:41:13;-1.30;81.70
21580;DHT22;10951;59.656;9.666;2023-03-01T08:43:41;-1.40;81.70
21580;DHT22;10951;59.656;9.666;2023-03-01T08:46:08;-1.40;81.50
21580;DHT22;10951;59.656;9.666;2023-03-01T08:48:35;-1.40;81.60
21580;DHT22;10951;59.656;9.666;2023-03-01T08:51:14;-1.30;81.70
21580;DHT22;10951;59.656;9.666;2023-03-01T08:53:42;-1.30;81.60
21580;DHT22;10951;59.656;9.666;2023-03-01T08:56:10;-1.30;81.50
21580;DHT22;10951;59.656;9.666;2023-03-01T08:58:37;-1.20;81.20
21580;DHT22;10951;59.656;9.666;2023-03-01T09:01:12;-1.20;80.90
21580;DHT22;10951;59.656;9.666;2023-03-01T09:03:39;-1.10;80.80
21580;DHT22;10951;59.656;9.666;2023-03-01T09:06:07;-1.00;80.40
21580;DHT22;10951;59.656;9.666;2023-03-01T09:08:35;-1.00;80.60
21580;DHT22;10951;59.656;9.666;2023-03-01T09:11:04;-0.80;80.10
21580;DHT22;10951;59.656;9.666;2023-03-01T09:13:32;-0.70;79.80
21580;DHT22;10951;59.656;9.666;2023-03-01T09:16:00;-0.70;78.90
21580;DHT22;10951;59.656;9.666;2023-03-01T09:18:28;-0.60;78.40
21580;DHT22;10951;59.656;9.666;2023-03-01T09:21:07;-0.60;78.20
21580;DHT22;10951;59.656;9.666;2023-03-01T09:23:39;-0.40;78.00
21580;DHT22;10951;59.656;9.666;2023-03-01T09:26:17;-0.40;77.30
21580;DHT22;10951;59.656;9.666;2023-03-01T09:28:46;-0.30;77.20
21580;DHT22;10951;59.656;9.666;2023-03-01T09:31:14;-0.20;77.00
21580;DHT22;10951;59.656;9.666;2023-03-01T09:33:45;-0.10;76.30
21580;DHT22;10951;59.656;9.666;2023-03-01T09:36:15;0.00;75.70
21580;DHT22;10951;59.656;9.666;2023-03-01T09:38:43;0.20;75.10
21580;DHT22;10951;59.656;9.666;2023-03-01T09:46:42;0.60;73.20
21580;DHT22;10951;59.656;9.666;2023-03-01T09:49:21;0.60;73.10
21580;DHT22;10951;59.656;9.666;2023-03-01T09:52:12;0.70;73.20
21580;DHT22;10951;59.656;9.666;2023-03-01T09:54:42;0.90;72.50
21580;DHT22;10951;59.656;9.666;2023-03-01T09:57:18;0.90;72.10
21580;DHT22;10951;59.656;9.666;2023-03-01T10:00:09;1.00;71.50
21580;DHT22;10951;59.656;9.666;2023-03-01T10:02:52;1.10;71.20
21580;DHT22;10951;59.656;9.666;2023-03-01T10:05:36;1.20;70.90
21580;DHT22;10951;59.656;9.666;2023-03-01T10:08:52;1.30;70.60
21580;DHT22;10951;59.656;9.666;2023-03-01T10:11:00;1.30;70.00
21580;DHT22;10951;59.656;9.666;2023-03-01T10:19:30;1.50;69.20
21580;DHT22;10951;59.656;9.666;2023-03-01T10:22:26;1.60;68.80
21580;DHT22;10951;59.656;9.666;2023-03-01T10:24:52;1.60;68.90
21580;DHT22;10951;59.656;9.666;2023-03-01T10:27:37;1.70;68.30
21580;DHT22;10951;59.656;9.666;2023-03-01T10:30:17;1.70;68.00
21580;DHT22;10951;59.656;9.666;2023-03-01T10:32:48;1.80;68.80
21580;DHT22;10951;59.656;9.666;2023-03-01T10:35:23;1.90;67.90
21580;DHT22;10951;59.656;9.666;2023-03-01T10:38:10;2.00;67.20
21580;DHT22;10951;59.656;9.666;2023-03-01T10:40:51;2.10;67.60
21580;DHT22;10951;59.656;9.666;2023-03-01T10:43:19;2.10;66.30
21580;DHT22;10951;59.656;9.666;2023-03-01T10:45:46;2.30;66.00
21580;DHT22;10951;59.656;9.666;2023-03-01T10:48:24;2.40;66.30
21580;DHT22;10951;59.656;9.666;2023-03-01T10:53:40;2.60;65.10
21580;DHT22;10951;59.656;9.666;2023-03-01T10:56:13;2.70;64.40
21580;DHT22;10951;59.656;9.666;2023-03-01T10:58:56;2.80;64.00
21580;DHT22;10951;59.656;9.666;2023-03-01T11:01:24;2.90;63.60
21580;DHT22;10951;59.656;9.666;2023-03-01T11:06:35;3.10;63.20
21580;DHT22;10951;59.656;9.666;2023-03-01T11:09:18;3.30;62.50
21580;DHT22;10951;59.656;9.666;2023-03-01T11:11:46;3.40;62.70
21580;DHT22;10951;59.656;9.666;2023-03-01T11:17:02;3.60;61.80
21580;DHT22;10951;59.656;9.666;2023-03-01T11:19:29;3.80;61.50
21580;DHT22;10951;59.656;9.666;2023-03-01T11:24:43;4.10;60.90
21580;DHT22;10951;59.656;9.666;2023-03-01T11:27:28;4.20;60.70
21580;DHT22;10951;59.656;9.666;2023-03-01T11:36:10;4.40;59.40
21580;DHT22;10951;59.656;9.666;2023-03-01T11:38:40;4.50;58.80
21580;DHT22;10951;59.656;9.666;2023-03-01T11:41:56;4.60;59.00
21580;DHT22;10951;59.656;9.666;2023-03-01T11:44:18;4.70;59.10
21580;DHT22;10951;59.656;9.666;2023-03-01T11:47:12;4.70;59.00
21580;DHT22;10951;59.656;9.666;2023-03-01T11:50:20;4.70;59.50
21580;DHT22;10951;59.656;9.666;2023-03-01T11:55:43;4.80;57.70
21580;DHT22;10951;59.656;9.666;2023-03-01T12:03:33;5.00;59.00
21580;DHT22;10951;59.656;9.666;2023-03-01T12:08:47;5.20;57.90
21580;DHT22;10951;59.656;9.666;2023-03-01T12:11:20;5.30;57.50
21580;DHT22;10951;59.656;9.666;2023-03-01T12:19:38;5.30;57.50
21580;DHT22;10951;59.656;9.666;2023-03-01T12:49:48;6.30;55.00
21580;DHT22;10951;59.656;9.666;2023-03-01T12:52:55;6.50;55.80
21580;DHT22;10951;59.656;9.666;2023-03-01T12:55:31;6.60;56.10
21580;DHT22;10951;59.656;9.666;2023-03-01T13:01:15;6.80;55.40
21580;DHT22;10951;59.656;9.666;2023-03-01T13:04:12;6.90;55.50
21580;DHT22;10951;59.656;9.666;2023-03-01T13:15:32;6.90;55.00
21580;DHT22;10951;59.656;9.666;2023-03-01T13:18:02;6.90;54.50
21580;DHT22;10951;59.656;9.666;2023-03-01T13:26:11;7.00;55.20
21580;DHT22;10951;59.656;9.666;2023-03-01T13:28:41;7.00;54.50
21580;DHT22;10951;59.656;9.666;2023-03-01T13:33:54;7.00;55.50
21580;DHT22;10951;59.656;9.666;2023-03-01T13:39:39;7.00;55.40
21580;DHT22;10951;59.656;9.666;2023-03-01T13:42:29;7.10;55.60
21580;DHT22;10951;59.656;9.666;2023-03-01T13:44:57;7.10;55.10
21580;DHT22;10951;59.656;9.666;2023-03-01T13:47:24;7.10;56.10
21580;DHT22;10951;59.656;9.666;2023-03-01T13:49:59;7.10;54.80
21580;DHT22;10951;59.656;9.666;2023-03-01T13:53:04;7.20;55.90
21580;DHT22;10951;59.656;9.666;2023-03-01T13:55:42;7.20;56.60
21580;DHT22;10951;59.656;9.666;2023-03-01T13:58:25;7.20;55.90
21580;DHT22;10951;59.656;9.666;2023-03-01T14:00:56;7.20;56.50
21580;DHT22;10951;59.656;9.666;2023-03-01T14:03:24;7.20;55.40
21580;DHT22;10951;59.656;9.666;2023-03-01T14:08:39;7.20;55.40
21580;DHT22;10951;59.656;9.666;2023-03-01T14:11:25;7.30;56.50
21580;DHT22;10951;59.656;9.666;2023-03-01T14:14:09;7.30;56.40
21580;DHT22;10951;59.656;9.666;2023-03-01T14:19:27;7.40;55.80
21580;DHT22;10951;59.656;9.666;2023-03-01T14:22:28;7.40;55.60
21580;DHT22;10951;59.656;9.666;2023-03-01T14:24:58;7.40;56.60
21580;DHT22;10951;59.656;9.666;2023-03-01T14:27:28;7.40;56.60
21580;DHT22;10951;59.656;9.666;2023-03-01T14:30:02;7.40;56.10
21580;DHT22;10951;59.656;9.666;2023-03-01T14:32:31;7.40;56.50
21580;DHT22;10951;59.656;9.666;2023-03-01T14:35:00;7.40;55.40
21580;DHT22;10951;59.656;9.666;2023-03-01T14:37:30;7.40;56.30
21580;DHT22;10951;59.656;9.666;2023-03-01T14:39:59;7.40;56.50
21580;DHT22;10951;59.656;9.666;2023-03-01T14:42:34;7.40;56.70
21580;DHT22;10951;59.656;9.666;2023-03-01T14:45:02;7.40;55.60
21580;DHT22;10951;59.656;9.666;2023-03-01T14:47:35;7.30;56.20
21580;DHT22;10951;59.656;9.666;2023-03-01T14:50:19;7.40;56.40
21580;DHT22;10951;59.656;9.666;2023-03-01T14:52:50;7.30;55.90
21580;DHT22;10951;59.656;9.666;2023-03-01T14:55:42;7.30;56.10
21580;DHT22;10951;59.656;9.666;2023-03-01T14:58:17;7.30;56.90
21580;DHT22;10951;59.656;9.666;2023-03-01T15:01:05;7.20;56.10
21580;DHT22;10951;59.656;9.666;2023-03-01T15:03:43;7.20;56.50
21580;DHT22;10951;59.656;9.666;2023-03-01T15:06:14;7.20;56.10
21580;DHT22;10951;59.656;9.666;2023-03-01T15:08:45;7.20;55.80
21580;DHT22;10951;59.656;9.666;2023-03-01T15:13:40;7.20;55.80
21580;DHT22;10951;59.656;9.666;2023-03-01T15:16:12;7.30;56.30
21580;DHT22;10951;59.656;9.666;2023-03-01T15:18:52;7.20;56.20
21580;DHT22;10951;59.656;9.666;2023-03-01T15:21:36;7.20;55.50
21580;DHT22;10951;59.656;9.666;2023-03-01T15:26:58;7.10;54.90
21580;DHT22;10951;59.656;9.666;2023-03-01T15:29:30;7.00;54.90
21580;DHT22;10951;59.656;9.666;2023-03-01T15:37:01;6.80;56.60
21580;DHT22;10951;59.656;9.666;2023-03-01T15:39:53;6.80;56.10
21580;DHT22;10951;59.656;9.666;2023-03-01T15:45:32;6.80;55.80
21580;DHT22;10951;59.656;9.666;2023-03-01T15:48:05;6.80;57.90
21580;DHT22;10951;59.656;9.666;2023-03-01T15:50:34;6.70;58.40
21580;DHT22;10951;59.656;9.666;2023-03-01T15:53:09;6.60;58.90
21580;DHT22;10951;59.656;9.666;2023-03-01T15:55:37;6.60;58.40
21580;DHT22;10951;59.656;9.666;2023-03-01T15:58:13;6.60;59.00
21580;DHT22;10951;59.656;9.666;2023-03-01T16:00:41;6.50;59.10
21580;DHT22;10951;59.656;9.666;2023-03-01T16:03:25;6.50;59.40
21580;DHT22;10951;59.656;9.666;2023-03-01T16:05:52;6.40;59.80
21580;DHT22;10951;59.656;9.666;2023-03-01T16:08:20;6.30;59.70
21580;DHT22;10951;59.656;9.666;2023-03-01T16:10:47;6.20;60.00
21580;DHT22;10951;59.656;9.666;2023-03-01T16:13:16;6.10;60.40
21580;DHT22;10951;59.656;9.666;2023-03-01T16:15:44;6.00;60.40
21580;DHT22;10951;59.656;9.666;2023-03-01T16:18:11;5.90;60.50
21580;DHT22;10951;59.656;9.666;2023-03-01T16:20:39;5.80;61.20
21580;DHT22;10951;59.656;9.666;2023-03-01T16:23:07;5.70;59.10
21580;DHT22;10951;59.656;9.666;2023-03-01T16:25:34;5.70;58.40
21580;DHT22;10951;59.656;9.666;2023-03-01T16:28:02;5.60;59.10
21580;DHT22;10951;59.656;9.666;2023-03-01T16:30:39;5.50;60.20
21580;DHT22;10951;59.656;9.666;2023-03-01T16:33:07;5.30;60.30
21580;DHT22;10951;59.656;9.666;2023-03-01T16:35:54;5.20;60.60
21580;DHT22;10951;59.656;9.666;2023-03-01T16:38:21;5.20;60.00
21580;DHT22;10951;59.656;9.666;2023-03-01T16:40:51;5.00;60.40
21580;DHT22;10951;59.656;9.666;2023-03-01T16:43:18;4.90;60.10
21580;DHT22;10951;59.656;9.666;2023-03-01T16:45:45;4.80;61.10
21580;DHT22;10951;59.656;9.666;2023-03-01T16:48:13;4.70;60.80
21580;DHT22;10951;59.656;9.666;2023-03-01T16:50:40;4.70;60.90
21580;DHT22;10951;59.656;9.666;2023-03-01T16:53:07;4.60;60.60
21580;DHT22;10951;59.656;9.666;2023-03-01T16:55:34;4.50;61.60
21580;DHT22;10951;59.656;9.666;2023-03-01T16:58:01;4.40;62.40
21580;DHT22;10951;59.656;9.666;2023-03-01T17:00:29;4.30;62.70
21580;DHT22;10951;59.656;9.666;2023-03-01T17:02:56;4.20;63.20
21580;DHT22;10951;59.656;9.666;2023-03-01T17:05:23;4.10;62.90
21580;DHT22;10951;59.656;9.666;2023-03-01T17:07:51;4.00;63.20
21580;DHT22;10951;59.656;9.666;2023-03-01T17:10:18;4.00;64.30
21580;DHT22;10951;59.656;9.666;2023-03-01T17:12:48;3.90;64.20
21580;DHT22;10951;59.656;9.666;2023-03-01T17:15:16;3.80;65.30
21580;DHT22;10951;59.656;9.666;2023-03-01T17:17:43;3.70;64.70
21580;DHT22;10951;59.656;9.666;2023-03-01T17:20:10;3.70;64.90
21580;DHT22;10951;59.656;9.666;2023-03-01T17:22:38;3.70;63.50
21580;DHT22;10951;59.656;9.666;2023-03-01T17:25:08;3.60;63.30
21580;DHT22;10951;59.656;9.666;2023-03-01T17:27:37;3.50;63.30
21580;DHT22;10951;59.656;9.666;2023-03-01T17:30:07;3.40;64.10
21580;DHT22;10951;59.656;9.666;2023-03-01T17:32:34;3.30;63.90
21580;DHT22;10951;59.656;9.666;2023-03-01T17:35:01;3.20;65.00
21580;DHT22;10951;59.656;9.666;2023-03-01T17:37:28;3.10;65.40
21580;DHT22;10951;59.656;9.666;2023-03-01T17:39:55;3.10;65.40
21580;DHT22;10951;59.656;9.666;2023-03-01T17:42:22;3.10;66.50
21580;DHT22;10951;59.656;9.666;2023-03-01T17:44:49;3.00;65.60
21580;DHT22;10951;59.656;9.666;2023-03-01T17:47:16;3.00;65.10
21580;DHT22;10951;59.656;9.666;2023-03-01T17:49:43;2.90;65.50
21580;DHT22;10951;59.656;9.666;2023-03-01T17:52:10;2.80;65.20
21580;DHT22;10951;59.656;9.666;2023-03-01T17:54:37;2.80;65.60
21580;DHT22;10951;59.656;9.666;2023-03-01T17:57:04;2.80;66.40
21580;DHT22;10951;59.656;9.666;2023-03-01T17:59:31;2.70;67.30
21580;DHT22;10951;59.656;9.666;2023-03-01T18:01:59;2.70;66.20
21580;DHT22;10951;59.656;9.666;2023-03-01T18:04:28;2.70;66.80
21580;DHT22;10951;59.656;9.666;2023-03-01T18:06:55;2.60;67.10
21580;DHT22;10951;59.656;9.666;2023-03-01T18:09:22;2.60;67.20
21580;DHT22;10951;59.656;9.666;2023-03-01T18:11:49;2.50;67.30
21580;DHT22;10951;59.656;9.666;2023-03-01T18:14:16;2.50;67.10